【ウィンドシア】


「ウィンドシア」によるTwitter検索の結果から選別して表示しています。)



どこかで天気が悪くなると呟く何か @metbot_jp2017-08-18 14:24:01
RJAA/NRT:東京/成田
ウィンドシア
180515Z 11007KT 9999 -SHRA FEW015 SCT020 BKN030 28/24 Q1009 WS R16R RMK 1CU015 3CU020 5CU030 A2980

メイト@国連職員 @Mate_Casual 2017-08-18 02:55:15
@yoakeno_wall もっともウィンドシアはあるんだが。というか陣形はアセンションに限らずセットアップ択が強い支援型英雄がウィンドシアを振るのが異常に強い。

どこかで天気が悪くなると呟く何か @metbot_jp 2017-08-17 15:11:09
RCSS/TSA:台北松山
ウィンドシア
170600Z VRB05KT 9999 FEW020 BKN035 33/25 Q1008 WS R10 NOSIG RMK A2978

どこかで天気が悪くなると呟く何か @metbot_jp 2017-08-17 14:11:12
RJFK/KOJ:鹿児島
ウィンドシア
170500Z 24010KT 9999 VCSH FEW025 BKN030 31/24 Q1009 WS R34

どこかで天気が悪くなると呟く何か @metbot_jp 2017-08-17 13:56:07
RCSS/TSA:台北松山
ウィンドシア
170450Z 10006KT 050V160 9999 FEW020 SCT035 35/26 Q1009 WS R10 NOSIG RMK A2980

どこかで天気が悪くなると呟く何か @metbot_jp 2017-08-16 22:11:11
VTBS/BKK:バンコク/スワンナプーム
ウィンドシア
161300Z 24012KT 200V270 7000 3000S RA FEW007 FEW018CB SCT030 24/21 Q1007 WS ALL RWY TEMPO TL1345 5000 TSRA

どこかで天気が悪くなると呟く何か @metbot_jp 2017-08-16 15:21:06
RCSS/TSA:台北松山
ウィンドシア
160614Z 29008KT 260V330 9999 FEW020TCU SCT035 BKN200 35/26 Q1007 WS R28 NOSIG RMK 31007KT/R10 TCU S-SW A2974

どこかで天気が悪くなると呟く何か @metbot_jp 2017-08-15 16:36:07
VHHH/HKG:香港
ウィンドシア
150730Z 24014KT 9999 FEW026 33/24 Q1006 WS R25R NOSIG

どこかで天気が悪くなると呟く何か @metbot_jp 2017-08-15 12:51:05
RCTP/TPE:台湾桃園
ウィンドシア
150330Z 24017KT 9999 SCT028 34/25 Q1008 WS R23R NOSIG RMK A2978

どこかで天気が悪くなると呟く何か @metbot_jp 2017-08-14 18:51:06
RCTP/TPE:台湾桃園
ウィンドシア
140941Z 24015KT 9999 FEW020 32/24 Q1006 WS R23R NOSIG RMK A2973

どこかで天気が悪くなると呟く何か @metbot_jp 2017-08-14 16:41:13
RCTP/TPE:台湾桃園
ウィンドシア
140730Z 25018KT 9999 FEW020 34/25 Q1006 WS R23R NOSIG RMK A2973

どこかで天気が悪くなると呟く何か @metbot_jp 2017-08-14 15:36:12
RCTP/TPE:台湾桃園
ウィンドシア
140627Z 25019KT 9999 FEW020 34/25 Q1007 WS R23R NOSIG RMK A2974

どこかで天気が悪くなると呟く何か @metbot_jp 2017-08-14 13:41:11
RCSS/TSA:台北松山
ウィンドシア
140433Z 33005KT 260V020 9999 FEW030 SCT060 36/25 Q1007 WS R10 NOSIG RMK A2975

どこかで天気が悪くなると呟く何か @metbot_jp 2017-08-13 17:06:06
ZBAA/PEK:北京首都
ウィンドシア
130800Z 15006MPS 9999 -TSRA SCT033CB SCT040 22/20 Q1009 WS RWY18L BECMG TL0820 TSRA

どこかで天気が悪くなると呟く何か @metbot_jp 2017-08-13 14:56:09
RCSS/TSA:台北松山
ウィンドシア
130545Z 32009KT 280V350 9999 FEW025 SCT035 36/27 Q1007 WS R28 NOSIG RMK 29008KT/R10 A2974

どこかで天気が悪くなると呟く何か @metbot_jp 2017-08-13 11:21:07
RCKH/KHH:高雄
ウィンドシア
130210Z 23008KT 200V260 9999 FEW014 SCT026 32/25 Q1010 WS R09 NOSIG RMK A2985

どこかで天気が悪くなると呟く何か @metbot_jp 2017-08-12 18:16:11
RCTP/TPE:台湾桃園
ウィンドシア
120909Z 25013KT 9999 FEW020 SCT200 33/25 Q1007 WS R23R NOSIG RMK A2975

どこかで天気が悪くなると呟く何か @metbot_jp 2017-08-12 16:26:09
RCTP/TPE:台湾桃園
ウィンドシア
120716Z 25017KT 9999 FEW020 SCT200 34/25 Q1007 WS R23R NOSIG RMK A2975

どこかで天気が悪くなると呟く何か @metbot_jp 2017-08-11 18:01:07
RCSS/TSA:台北松山
ウィンドシア
110851Z 11013KT 9999 TS VCSH FEW020 FEW025CB BKN038 BKN200 32/26 Q1006 WS R10 NOSIG RMK TS NE-SE MOV NW A2971

どこかで天気が悪くなると呟く何か @metbot_jp 2017-08-11 16:56:06
RCSS/TSA:台北松山
ウィンドシア
110746Z 28010KT 9999 VCSH FEW020 FEW025CB BKN040 BKN200 35/26 Q1005 WS R28 NOSIG RMK 28011KT/R10 CB SE A2969

どこかで天気が悪くなると呟く何か @metbot_jp 2017-08-11 15:11:11
RCTP/TPE:台湾桃園
ウィンドシア
110600Z 25018KT 9999 FEW020 BKN200 33/26 Q1006 WS R23R NOSIG RMK A2973

どこかで天気が悪くなると呟く何か @metbot_jp 2017-08-11 13:46:05
RCTP/TPE:臺灣桃園
ウィンドシア
110441Z 24017KT 9999 FEW020 BKN200 35/26 Q1007 WS R23R NOSIG RMK A2975

どこかで天気が悪くなると呟く何か @metbot_jp 2017-08-11 12:36:10
RCTP/TPE:臺灣桃園
ウィンドシア
110327Z 25019KT 9999 FEW020 BKN200 33/25 Q1007 WS R23R NOSIG RMK A2975

どこかで天気が悪くなると呟く何か @metbot_jp 2017-08-11 10:41:05
RCTP/TPE:臺灣桃園
ウィンドシア
110132Z 24021KT 9999 FEW020 BKN200 33/25 Q1008 WS R23R NOSIG RMK A2977

どこかで天気が悪くなると呟く何か @metbot_jp 2017-08-11 02:41:09
VTBS/BKK:บางกอก/ท่าอากาศยานสุวรรณภูมิ
ウィンドシア
101730Z 32013G30KT 280V010 5000 TSRA FEW009 SCT017CB SCT030 BKN100 26/22 Q1011 WS ALL RWY T...

どこかで天気が悪くなると呟く何か @metbot_jp 2017-08-10 20:41:06
RCTP/TPE:臺灣桃園
ウィンドシア
101130Z 23016KT 9999 FEW025 SCT200 31/25 Q1005 WS R23R NOSIG RMK A2969

どこかで天気が悪くなると呟く何か @metbot_jp 2017-08-10 19:11:19
RCSS/TSA:臺北松山
ウィンドシア
101000Z 26019KT 9999 FEW028 SCT300 34/24 Q1004 WS R28 NOSIG RMK 26014KT/R10 A2967

どこかで天気が悪くなると呟く何か @metbot_jp 2017-08-10 19:11:19
RCTP/TPE:臺灣桃園
ウィンドシア
101000Z 23017KT 9999 FEW025 SCT180 32/25 Q1005 WS R23R NOSIG RMK A2968

どこかで天気が悪くなると呟く何か @metbot_jp 2017-08-10 17:41:14
RCTP/TPE:臺灣桃園
ウィンドシア
100830Z 25023KT 9999 FEW025 SCT180 34/26 Q1003 WS ALL RWY NOSIG RMK A2964

どこかで天気が悪くなると呟く何か @metbot_jp 2017-08-10 17:41:14
RCSS/TSA:臺北松山
ウィンドシア
100830Z 26017KT 9999 FEW028 SCT300 36/23 Q1003 WS R28 NOSIG RMK 25014KT/R10 A2963

どこかで天気が悪くなると呟く何か @metbot_jp 2017-08-10 16:41:11
RCTP/TPE:臺灣桃園
ウィンドシア
100730Z 24024G34KT 9999 FEW025 SCT180 35/25 Q1003 WS ALL RWY NOSIG RMK A2963

どこかで天気が悪くなると呟く何か @metbot_jp 2017-08-10 16:41:10
RCSS/TSA:臺北松山
ウィンドシア
100730Z 26020KT 230V290 9999 FEW028 36/23 Q1003 WS R28 NOSIG RMK 26017G29KT/R10 A2962

どこかで天気が悪くなると呟く何か @metbot_jp 2017-08-10 15:41:10
RCTP/TPE:臺灣桃園
ウィンドシア
100630Z 25025G35KT 9999 FEW022 SCT180 35/24 Q1003 WS ALL RWY NOSIG RMK A2963

スポンサーリンク

どこかで天気が悪くなると呟く何か @metbot_jp 2017-08-10 15:41:10
RCSS/TSA:臺北松山
ウィンドシア
100630Z 26017KT 220V300 9999 FEW028 SCT250 37/23 Q1003 WS R28 NOSIG RMK 27017G31KT/R10 A2963

どこかで天気が悪くなると呟く何か @metbot_jp 2017-08-10 14:41:08
RCTP/TPE:臺灣桃園
ウィンドシア
100530Z 24028KT 9999 FEW022 BKN180 35/24 Q1004 WS ALL RWY NOSIG RMK A2965

どこかで天気が悪くなると呟く何か @metbot_jp 2017-08-10 14:41:08
RCSS/TSA:臺北松山
ウィンドシア
100530Z 27019KT 9999 FEW025 SCT250 37/24 Q1003 WS R28 NOSIG RMK 26016KT/R10 A2964

どこかで天気が悪くなると呟く何か @metbot_jp 2017-08-10 13:41:08
RCSS/TSA:臺北松山
ウィンドシア
100430Z 26021KT 9999 FEW025 36/24 Q1004 WS R28 NOSIG RMK 26016KT/R10 A2965

どこかで天気が悪くなると呟く何か @metbot_jp 2017-08-10 13:41:07
RCTP/TPE:臺灣桃園
ウィンドシア
100430Z 23028G38KT 9999 FEW022 BKN180 36/24 Q1004 WS ALL RWY NOSIG RMK A2966

どこかで天気が悪くなると呟く何か @metbot_jp 2017-08-10 12:41:05
RCTP/TPE:臺灣桃園
ウィンドシア
100330Z 23027G37KT 9999 FEW022 BKN180 35/23 Q1005 WS ALL RWY NOSIG RMK A2968

どこかで天気が悪くなると呟く何か @metbot_jp 2017-08-10 12:11:07
RCSS/TSA:臺北松山
ウィンドシア
100300Z 26021G33KT 9999 FEW025 SCT040 35/24 Q1005 WS R28 NOSIG RMK 25019KT/R10 A2968

どこかで天気が悪くなると呟く何か @metbot_jp 2017-08-10 11:41:04
RCTP/TPE:臺灣桃園
ウィンドシア
100230Z 24028KT 9999 FEW022 SCT080 33/25 Q1006 WS ALL RWY NOSIG RMK A2971

どこかで天気が悪くなると呟く何か @metbot_jp 2017-08-10 11:06:05
RCSS/TSA:臺北松山
ウィンドシア
100156Z 26019KT 9999 FEW025 SCT042 35/25 Q1005 WS R28 NOSIG RMK 26019KT/R10 A2969

どこかで天気が悪くなると呟く何か @metbot_jp 2017-08-10 10:11:17
RCTP/TPE:臺灣桃園
ウィンドシア
100100Z 24027G37KT 9999 FEW020 SCT100 33/26 Q1005 WS R23R NOSIG RMK A2969

どこかで天気が悪くなると呟く何か @metbot_jp 2017-08-10 09:11:11
RCTP/TPE:臺灣桃園
ウィンドシア
100000Z 24020KT 9999 FEW020 33/24 Q1005 WS R23R NOSIG RMK A2968

どこかで天気が悪くなると呟く何か @metbot_jp 2017-08-10 09:06:09
RJFF/FUK:福岡
ウィンドシア
100000Z VRB04KT 9999 FEW010 SCT030 BKN040 31/26 Q0999 WS R16 RMK 1CU010 3CU030 5CU040 A2952

どこかで天気が悪くなると呟く何か @metbot_jp 2017-08-10 07:56:09
RCTP/TPE:臺灣桃園
ウィンドシア
092250Z 23020KT 9999 FEW020 31/24 Q1004 WS R23R NOSIG RMK A2966

どこかで天気が悪くなると呟く何か @metbot_jp 2017-08-10 03:41:05
RCTP/TPE:臺灣桃園
ウィンドシア
091830Z 22019KT 9999 FEW020 29/24 Q1003 WS R23R NOSIG RMK A2962

どこかで天気が悪くなると呟く何か @metbot_jp 2017-08-10 02:11:05
RCTP/TPE:臺灣桃園
ウィンドシア
091701Z 23017KT 9999 FEW020 29/25 Q1004 WS R23R NOSIG RMK A2966

どこかで天気が悪くなると呟く何か @metbot_jp 2017-08-10 00:41:16
RCTP/TPE:臺灣桃園
ウィンドシア
091533Z 22015KT 9999 FEW020 30/24 Q1004 WS R23R NOSIG RMK A2966

どこかで天気が悪くなると呟く何か @metbot_jp 2017-08-09 20:11:15
RCTP/TPE:臺灣桃園
ウィンドシア
091100Z 24020KT 9999 FEW020 SCT200 31/24 Q1003 WS ALL RWY NOSIG RMK A2964

どこかで天気が悪くなると呟く何か @metbot_jp 2017-08-09 18:41:14
RCTP/TPE:臺灣桃園
ウィンドシア
090930Z 24023G34KT 9999 FEW020 SCT200 32/24 Q1002 WS ALL RWY NOSIG RMK A2960

どこかで天気が悪くなると呟く何か @metbot_jp 2017-08-09 17:11:14
RCTP/TPE:臺灣桃園
ウィンドシア
090800Z 25024G35KT 9999 FEW020 SCT200 34/23 Q1002 WS R23R NOSIG RMK A2960

どこかで天気が悪くなると呟く何か @metbot_jp 2017-08-09 16:01:16
RCTP/TPE:臺灣桃園
ウィンドシア
090653Z 25025KT 9999 FEW020 SCT200 34/23 Q1002 WS R23R NOSIG RMK A2961

どこかで天気が悪くなると呟く何か @metbot_jp 2017-08-09 14:11:11
RCTP/TPE:臺灣桃園
ウィンドシア
090500Z 25024KT 9999 FEW020 SCT220 35/24 Q1003 WS ALL RWY NOSIG RMK A2964

どこかで天気が悪くなると呟く何か @metbot_jp 2017-08-09 14:11:11
RCSS/TSA:臺北松山
ウィンドシア
090500Z 25020G30KT 9999 FEW030 BKN250 37/24 Q1003 WS R28 NOSIG RMK 26016KT/R10 A2962

どこかで天気が悪くなると呟く何か @metbot_jp 2017-08-09 12:41:09
RCTP/TPE:臺灣桃園
ウィンドシア
090330Z 25026KT 9999 FEW020 SCT220 35/24 Q1004 WS R23R NOSIG RMK A2966

どこかで天気が悪くなると呟く何か @metbot_jp 2017-08-09 12:41:09
RCSS/TSA:臺北松山
ウィンドシア
090330Z 26018KT 230V290 9999 FEW030 BKN250 37/24 Q1003 WS R28 NOSIG RMK 26014KT/R10 A2964

どこかで天気が悪くなると呟く何か @metbot_jp 2017-08-09 11:41:08
RCTP/TPE:臺灣桃園
ウィンドシア
090230Z 24023G33KT 9999 FEW020 SCT220 35/24 Q1005 WS R23R NOSIG RMK A2968

どこかで天気が悪くなると呟く何か @metbot_jp 2017-08-09 11:16:06
RCSS/TSA:臺北松山
ウィンドシア
090209Z 25017KT 9999 FEW025 BKN300 36/23 Q1004 WS R28 NOSIG RMK 26014KT/R10 A2967

どこかで天気が悪くなると呟く何か @metbot_jp 2017-08-09 10:41:07
ROAH/OKA:那覇
ウィンドシア
090130Z 22011KT 9999 +SHRA FEW015 SCT020 FEW025TCU 30/27 Q1005 WS R18 RMK 2CU015 4CU020 2TCU025 A2969 DOWN BURST OBS ...

どこかで天気が悪くなると呟く何か @metbot_jp 2017-08-09 10:41:06
RCTP/TPE:臺灣桃園
ウィンドシア
090130Z 24026G37KT 9999 FEW020 SCT220 34/24 Q1005 WS R23R NOSIG RMK A2969

どこかで天気が悪くなると呟く何か @metbot_jp 2017-08-09 09:11:15
RCTP/TPE:臺灣桃園
ウィンドシア
090000Z 24021G31KT 9999 FEW020 SCT180 32/24 Q1005 WS ALL RWY NOSIG RMK A2969

どこかで天気が悪くなると呟く何か @metbot_jp 2017-08-09 08:11:12
RCTP/TPE:臺灣桃園
ウィンドシア
082300Z 24021KT 9999 FEW020 SCT180 31/24 Q1004 WS ALL RWY NOSIG RMK A2967

どこかで天気が悪くなると呟く何か @metbot_jp 2017-08-09 07:01:15
RCTP/TPE:臺灣桃園
ウィンドシア
082153Z 24021KT 9999 FEW020 29/25 Q1004 WS R23L NOSIG RMK A2967

どこかで天気が悪くなると呟く何か @metbot_jp 2017-08-08 23:06:08
ZBAA/PEK:北京首都
ウィンドシア
081400Z 35012G17MPS 6000 TSRA OVC040CB 21/19 Q1000 WS RWY01 BECMG TL1540 36004MPS -TSRA

どこかで天気が悪くなると呟く何か @metbot_jp 2017-08-08 18:11:08
RCTP/TPE:臺灣桃園
ウィンドシア
080900Z 24019G29KT 9999 FEW025 SCT180 33/25 Q1004 WS R23R NOSIG RMK A2966

スポンサーリンク

どこかで天気が悪くなると呟く何か @metbot_jp 2017-08-08 17:11:07
RCTP/TPE:臺灣桃園
ウィンドシア
080800Z 24021G32KT 9999 FEW025 SCT180 33/25 Q1004 WS R23R NOSIG RMK A2966

どこかで天気が悪くなると呟く何か @metbot_jp 2017-08-08 16:11:06
RCTP/TPE:臺灣桃園
ウィンドシア
080700Z 25024G34KT 9999 FEW025 34/25 Q1004 WS R23R NOSIG RMK A2966

どこかで天気が悪くなると呟く何か @metbot_jp 2017-08-08 15:01:06
RCTP/TPE:臺灣桃園
ウィンドシア
080553Z 24022G32KT 9999 FEW025 35/24 Q1004 WS R23R NOSIG RMK A2967

どこかで天気が悪くなると呟く何か @metbot_jp 2017-08-08 13:11:05
RJOO/ITM:大阪/伊丹
ウィンドシア
080400Z 02008KT 9999 SHRA FEW008 SCT020 BKN030 27/24 Q0997 WS R32L

どこかで天気が悪くなると呟く何か @metbot_jp 2017-08-08 12:41:08
RCTP/TPE:臺灣桃園
ウィンドシア
080330Z 25019KT 9999 FEW025 SCT220 35/26 Q1005 WS R23R NOSIG RMK A2970

どこかで天気が悪くなると呟く何か @metbot_jp 2017-08-08 11:41:06
RCTP/TPE:臺灣桃園
ウィンドシア
080233Z 25021KT 9999 FEW025 SCT220 35/25 Q1006 WS R23R NOSIG RMK A2971

どこかで天気が悪くなると呟く何か @metbot_jp 2017-08-08 10:41:05
RCTP/TPE:臺灣桃園
ウィンドシア
080132Z 23019KT 9999 FEW020 SCT200 34/24 Q1006 WS R23R NOSIG RMK A2972

どこかで天気が悪くなると呟く何か @metbot_jp 2017-08-08 09:11:17
RCTP/TPE:臺灣桃園
ウィンドシア
080001Z 24019KT 9999 FEW020 32/25 Q1005 WS R23R NOSIG RMK A2970

どこかで天気が悪くなると呟く何か @metbot_jp 2017-08-07 22:11:10
RJBB/KIX:大阪/関西
ウィンドシア
071300Z 27028KT 9999 VCSH FEW010 SCT025 BKN040 26/26 Q0990 WS R24L NOSIG

どこかで天気が悪くなると呟く何か @metbot_jp 2017-08-07 22:11:09
RCTP/TPE:臺灣桃園
ウィンドシア
071301Z 23014KT 9999 FEW015 29/27 Q1005 WS R23R NOSIG RMK A2970

どこかで天気が悪くなると呟く何か @metbot_jp 2017-08-07 20:41:09
RCTP/TPE:臺灣桃園
ウィンドシア
071130Z 23016KT 9999 FEW020 30/25 Q1004 WS R23R NOSIG RMK A2967

どこかで天気が悪くなると呟く何か @metbot_jp 2017-08-07 18:41:07
RCTP/TPE:臺灣桃園
ウィンドシア
070930Z 23015KT 9999 FEW020 SCT200 32/25 Q1004 WS R23R NOSIG RMK A2965

どこかで天気が悪くなると呟く何か @metbot_jp 2017-08-07 18:11:07
RJFK/KOJ:鹿児島
ウィンドシア
070900Z 27010KT 240V310 9999 FEW020 SCT035 29/24 Q1000 WS R34

どこかで天気が悪くなると呟く何か @metbot_jp 2017-08-07 18:11:07
RJAA/NRT:東京/成田
ウィンドシア
070900Z 16014KT 9999 FEW015 BKN/// 29/26 Q1000 WS R16L NOSIG

どこかで天気が悪くなると呟く何か @metbot_jp 2017-08-07 17:31:05
RCTP/TPE:臺灣桃園
ウィンドシア
070824Z 24017KT 9999 FEW020 SCT200 34/25 Q1003 WS R23R NOSIG RMK A2964

どこかで天気が悪くなると呟く何か @metbot_jp 2017-08-07 17:21:05
RCSS/TSA:臺北松山
ウィンドシア
070811Z 29009KT 270V330 9999 FEW025 SCT050 BKN200 37/26 Q1003 WS R28 NOSIG RMK 31008KT/R10 A2963

どこかで天気が悪くなると呟く何か @metbot_jp 2017-08-07 17:09:03
RJAA/NRT:東京/成田
ウィンドシア
070800Z 15012KT 9999 FEW015 BKN/// 30/26 Q1000 WS R16R NOSIG RMK 2CU015 A2955

ちやま @chiyamax1 2017-08-07 16:05:01
ウィンドシア警報が出たら、すぐにゴーアラウンドしましょう。その際対気速度に注意(戒め)

どこかで天気が悪くなると呟く何か @metbot_jp 2017-08-07 11:11:05
RJFK/KOJ:鹿児島
ウィンドシア
070200Z 29014G24KT 9999 FEW025 SCT030 31/24 Q0999 WS R34

どこかで天気が悪くなると呟く何か @metbot_jp 2017-08-07 11:01:05
RCTP/TPE:臺灣桃園
ウィンドシア
070155Z 24016KT 9999 FEW020 35/25 Q1005 WS R23R NOSIG RMK A2970

どこかで天気が悪くなると呟く何か @metbot_jp 2017-08-07 09:56:04
RCTP/TPE:臺灣桃園
ウィンドシア
070046Z 24018KT 9999 FEW020 33/25 Q1006 WS R23R NOSIG RMK A2972

どこかで天気が悪くなると呟く何か @metbot_jp 2017-08-06 20:11:09
RJOT/TAK:高松
ウィンドシア
061100Z 08007KT 050V130 9999 FEW020 SCT150 27/24 Q0999 WS R26

どこかで天気が悪くなると呟く何か @metbot_jp 2017-08-06 17:51:05
RCTP/TPE:臺灣桃園
ウィンドシア
060840Z 23018KT 9999 FEW020 SCT220 33/25 Q1002 WS R23R NOSIG RMK A2961

どこかで天気が悪くなると呟く何か @metbot_jp 2017-08-06 17:11:06
RJFU/NGS:長崎
ウィンドシア
060800Z 04024KT 9999 VCSH FEW030 BKN140 BKN/// 31/22 Q0991 WS R32

どこかで天気が悪くなると呟く何か @metbot_jp 2017-08-06 15:41:08
RJFF/FUK:福岡
ウィンドシア
060630Z VRB05KT 9999 FEW025 BKN035 BKN/// 30/22 Q0995 WS R16 RMK 1CU025 5CU035 A2939

どこかで天気が悪くなると呟く何か @metbot_jp 2017-08-06 14:11:07
RCTP/TPE:臺灣桃園
ウィンドシア
060505Z 25020KT 9999 FEW020 SCT180 35/26 Q1004 WS R23R NOSIG RMK A2966

どこかで天気が悪くなると呟く何か @metbot_jp 2017-08-06 12:41:06
RCTP/TPE:臺灣桃園
ウィンドシア
060330Z 25018KT 9999 FEW020 36/26 Q1004 WS R23R NOSIG RMK A2967

どこかで天気が悪くなると呟く何か @metbot_jp 2017-08-06 11:41:04
RJFF/FUK:福岡
ウィンドシア
060230Z 08015KT 030V120 9999 FEW030 SCT040 BKN070 32/23 Q0997 WS R16 RMK 1CU030 3CU040 5AC070 A2945

どこかで天気が悪くなると呟く何か @metbot_jp 2017-08-06 11:41:04
RCTP/TPE:臺灣桃園
ウィンドシア
060230Z 24022G32KT 9999 FEW020 35/25 Q1005 WS R23R NOSIG RMK A2969

どこかで天気が悪くなると呟く何か @metbot_jp 2017-08-06 10:26:06
RCTP/TPE:臺灣桃園
ウィンドシア
060116Z 24019KT 9999 FEW020 SCT060 34/25 Q1005 WS R23R NOSIG RMK A2970

またたび@CR7 @Matatabi_CR7 2017-08-06 01:22:31
@pattuntun1 ありがとうございます!
BUN持ってなくて、付録のGRP使ってみたのですがイマイチでして、ウィンドシアに変えたので試してみます☺️
あと、ラモスとナチョの位置を逆にするか迷ってるのですが、どっちがいいですかね😅

快斗〈373〉 @pattuntun1 2017-08-06 01:19:23
@Matatabi_CR7 BUNが良いと聞きますね。
BUN以外であればウィンドシアが一番良いと思います。

どこかで天気が悪くなると呟く何か @metbot_jp 2017-08-05 18:21:04
RCTP/TPE:臺灣桃園
ウィンドシア
050912Z 23018KT 9999 FEW025 SCT200 33/25 Q1002 WS R23R NOSIG RMK A2961

スポンサーリンク

どこかで天気が悪くなると呟く何か @metbot_jp 2017-08-05 17:11:05
RCTP/TPE:臺灣桃園
ウィンドシア
050800Z 24021KT 9999 FEW025 34/25 Q1003 WS R23R NOSIG RMK A2963

スポンサーリンク

▼ 関連項目 ▼
鹿 / / RP /

▼このスカイリムったー【ウィンドシア】のページを共有▼

▼ 系列用語集リンク ▼
TES:IV用語集/ TES:V用語集/ Fo3用語集/ FoNV用語集ログ/ 用語集横断検索
スカイリムったー